createdAt,value
2018-08-10T00:00:19.289Z,0
2018-08-10T00:01:00.089Z,0
2018-08-10T00:01:40.845Z,0
2018-08-10T00:02:21.582Z,0
2018-08-10T00:03:02.368Z,0
2018-08-10T00:03:43.134Z,0
2018-08-10T00:04:23.831Z,0
2018-08-10T00:05:04.641Z,0
2018-08-10T00:05:45.471Z,0
2018-08-10T00:06:26.303Z,0
2018-08-10T00:07:07.059Z,0
2018-08-10T00:07:47.808Z,0
2018-08-10T00:08:28.637Z,0
2018-08-10T00:09:09.386Z,0
2018-08-10T00:09:50.138Z,0
2018-08-10T00:10:30.891Z,0
2018-08-10T00:11:11.661Z,0
2018-08-10T00:11:52.496Z,0
2018-08-10T00:12:33.292Z,0
2018-08-10T00:13:14.111Z,0
2018-08-10T00:13:54.868Z,0
2018-08-10T00:14:35.615Z,0
2018-08-10T00:15:16.380Z,0
2018-08-10T00:15:57.225Z,0
2018-08-10T00:16:38.027Z,0
2018-08-10T00:17:18.789Z,0
2018-08-10T00:17:59.625Z,0
2018-08-10T00:18:40.438Z,0
2018-08-10T00:19:21.278Z,0
2018-08-10T00:20:02.009Z,0
2018-08-10T00:20:42.767Z,0
2018-08-10T00:21:23.614Z,0
2018-08-10T00:22:18.935Z,0
2018-08-10T00:22:59.680Z,0
2018-08-10T00:23:40.437Z,0
2018-08-10T00:24:21.192Z,0
2018-08-10T00:25:02.026Z,0
2018-08-10T00:25:42.803Z,0
2018-08-10T00:26:23.580Z,0
2018-08-10T00:27:04.447Z,0
2018-08-10T00:27:45.222Z,0
2018-08-10T00:28:26.064Z,0
2018-08-10T00:29:06.801Z,0
2018-08-10T00:29:47.559Z,0
2018-08-10T00:30:28.318Z,0
2018-08-10T00:31:09.135Z,0
2018-08-10T00:31:49.979Z,0
2018-08-10T00:32:30.864Z,0
2018-08-10T00:33:11.601Z,0
2018-08-10T00:33:52.342Z,0
2018-08-10T00:34:33.244Z,0
2018-08-10T00:35:13.998Z,0
2018-08-10T00:35:54.761Z,0
2018-08-10T00:36:35.503Z,0
2018-08-10T00:37:16.261Z,0
2018-08-10T00:37:57.169Z,0
2018-08-10T00:38:37.999Z,0
2018-08-10T00:39:18.795Z,0
2018-08-10T00:39:59.562Z,0
2018-08-10T00:40:40.304Z,0
2018-08-10T00:41:21.078Z,0
2018-08-10T00:42:01.882Z,0
2018-08-10T00:42:42.714Z,0
2018-08-10T00:43:23.471Z,0
2018-08-10T00:44:04.236Z,0
2018-08-10T00:44:45.049Z,0
2018-08-10T00:45:25.865Z,0
2018-08-10T00:46:06.648Z,0
2018-08-10T00:46:47.410Z,0
2018-08-10T00:47:28.119Z,0
2018-08-10T00:48:08.846Z,0
2018-08-10T00:48:49.693Z,0
2018-08-10T00:49:30.461Z,0
2018-08-10T00:50:11.310Z,0
2018-08-10T00:50:52.042Z,0
2018-08-10T00:51:32.819Z,0
2018-08-10T00:52:13.656Z,0
2018-08-10T00:52:54.376Z,0
2018-08-10T00:53:35.126Z,0
2018-08-10T00:54:15.909Z,0
2018-08-10T00:54:56.724Z,0
2018-08-10T00:55:37.611Z,0
2018-08-10T00:56:18.365Z,0
2018-08-10T00:56:59.123Z,0
2018-08-10T00:57:39.953Z,0
2018-08-10T00:58:20.737Z,0
2018-08-10T00:59:01.580Z,0
2018-08-10T00:59:43.931Z,0
2018-08-10T01:00:24.692Z,0
2018-08-10T01:01:05.552Z,0
2018-08-10T01:01:46.309Z,0
2018-08-10T01:02:27.053Z,0
2018-08-10T01:03:07.833Z,0
2018-08-10T01:03:48.655Z,0
2018-08-10T01:04:29.553Z,0
2018-08-10T01:05:10.400Z,0
2018-08-10T01:05:51.151Z,0
2018-08-10T01:06:31.892Z,0
2018-08-10T01:07:12.623Z,0
2018-08-10T01:07:53.379Z,0
2018-08-10T01:08:34.189Z,0
2018-08-10T01:09:14.896Z,0
2018-08-10T01:09:55.647Z,0
2018-08-10T01:10:36.511Z,0
2018-08-10T01:11:17.311Z,0
2018-08-10T01:11:58.130Z,0
2018-08-10T01:12:38.887Z,0
2018-08-10T01:13:22.519Z,0
2018-08-10T01:14:03.275Z,0
2018-08-10T01:14:44.043Z,0
2018-08-10T01:15:24.797Z,0
2018-08-10T01:16:05.558Z,0
2018-08-10T01:16:46.314Z,0
2018-08-10T01:17:27.151Z,0
2018-08-10T01:18:07.903Z,0
2018-08-10T01:18:48.769Z,0
2018-08-10T01:19:29.726Z,0
2018-08-10T01:20:10.390Z,0
2018-08-10T01:20:51.191Z,0
2018-08-10T01:21:31.884Z,0
2018-08-10T01:22:12.665Z,0
2018-08-10T01:22:53.402Z,0
2018-08-10T01:23:34.243Z,0
2018-08-10T01:24:15.157Z,0
2018-08-10T01:24:56.064Z,0
2018-08-10T01:25:36.802Z,0
2018-08-10T01:26:17.584Z,0
2018-08-10T01:26:58.446Z,0
2018-08-10T01:27:39.231Z,0
2018-08-10T01:28:20.018Z,0
2018-08-10T01:29:00.869Z,0
2018-08-10T01:29:41.524Z,0
2018-08-10T01:30:22.351Z,0
2018-08-10T01:31:03.064Z,0
2018-08-10T01:31:43.829Z,0
2018-08-10T01:32:24.685Z,0
2018-08-10T01:33:05.510Z,0
2018-08-10T01:33:46.381Z,0
2018-08-10T01:34:27.045Z,0
2018-08-10T01:35:07.835Z,0
2018-08-10T01:35:48.711Z,0
2018-08-10T01:36:29.464Z,0
2018-08-10T01:37:10.170Z,0
2018-08-10T01:37:50.886Z,0
2018-08-10T01:38:31.716Z,0
2018-08-10T01:39:12.492Z,0
2018-08-10T01:39:53.311Z,0
2018-08-10T01:40:34.116Z,0
2018-08-10T01:41:14.845Z,0
2018-08-10T01:41:55.607Z,0
2018-08-10T01:42:36.342Z,0
2018-08-10T01:43:17.202Z,0
2018-08-10T01:43:57.932Z,0
2018-08-10T01:44:38.668Z,0
2018-08-10T01:45:19.517Z,0
2018-08-10T01:46:00.327Z,0
2018-08-10T01:46:41.163Z,0
2018-08-10T01:47:21.872Z,0
2018-08-10T01:48:02.608Z,0
2018-08-10T01:48:43.364Z,0
2018-08-10T01:49:24.150Z,0
2018-08-10T01:50:04.986Z,0
2018-08-10T01:50:45.839Z,0
2018-08-10T01:51:26.612Z,0
2018-08-10T01:52:07.369Z,0
2018-08-10T01:52:48.199Z,0
2018-08-10T01:53:28.991Z,0
2018-08-10T01:54:09.768Z,0
2018-08-10T01:54:50.923Z,0
2018-08-10T01:55:31.717Z,0
2018-08-10T01:56:12.537Z,0
2018-08-10T01:56:53.357Z,0
2018-08-10T01:57:34.207Z,0
2018-08-10T01:58:14.976Z,0
2018-08-10T01:58:55.777Z,0
2018-08-10T01:59:36.499Z,0
2018-08-10T02:00:17.321Z,0
2018-08-10T02:00:58.130Z,0
2018-08-10T02:01:38.895Z,0
2018-08-10T02:02:19.688Z,0
2018-08-10T02:03:00.591Z,0
2018-08-10T02:03:41.459Z,0
2018-08-10T02:04:22.289Z,0
2018-08-10T02:05:03.016Z,0
2018-08-10T02:05:43.802Z,0
2018-08-10T02:06:24.613Z,0
2018-08-10T02:07:05.360Z,0
2018-08-10T02:07:46.099Z,0
2018-08-10T02:08:26.877Z,0
2018-08-10T02:09:07.726Z,0
2018-08-10T02:09:48.507Z,0
2018-08-10T02:10:29.260Z,0
2018-08-10T02:11:10.062Z,0
2018-08-10T02:11:50.895Z,0
2018-08-10T02:12:31.771Z,0
2018-08-10T02:13:12.563Z,0
2018-08-10T02:13:53.345Z,0
2018-08-10T02:14:34.104Z,0
2018-08-10T02:15:14.907Z,0
2018-08-10T02:15:55.757Z,0
2018-08-10T02:16:36.624Z,0
2018-08-10T02:17:17.441Z,0
2018-08-10T02:17:58.177Z,0
2018-08-10T02:18:38.956Z,0
2018-08-10T02:19:19.817Z,0
2018-08-10T02:20:00.565Z,0
2018-08-10T02:20:41.279Z,0
2018-08-10T02:21:22.008Z,0
2018-08-10T02:22:02.792Z,0
2018-08-10T02:22:43.599Z,0
2018-08-10T02:23:24.386Z,0
2018-08-10T02:24:05.212Z,0
2018-08-10T02:24:46.110Z,0
2018-08-10T02:25:26.876Z,0
2018-08-10T02:26:07.653Z,0
2018-08-10T02:26:48.390Z,0
2018-08-10T02:27:29.207Z,0
2018-08-10T02:28:10.028Z,0
2018-08-10T02:28:52.477Z,0
2018-08-10T02:29:33.241Z,0
2018-08-10T02:30:13.983Z,0
2018-08-10T02:30:54.804Z,0
2018-08-10T02:31:35.630Z,0
2018-08-10T02:32:16.445Z,0
2018-08-10T02:32:57.253Z,0
2018-08-10T02:33:37.973Z,0
2018-08-10T02:34:18.732Z,0
2018-08-10T02:34:59.569Z,0
2018-08-10T02:35:40.370Z,0
2018-08-10T02:36:21.149Z,0
2018-08-10T02:37:01.938Z,0
2018-08-10T02:37:42.740Z,0
2018-08-10T02:38:23.556Z,0
2018-08-10T02:39:04.340Z,0
2018-08-10T02:39:45.131Z,0
2018-08-10T02:40:25.977Z,0
2018-08-10T02:41:06.763Z,0
2018-08-10T02:41:47.534Z,0
2018-08-10T02:42:28.259Z,0
2018-08-10T02:43:08.985Z,0
2018-08-10T02:43:49.778Z,0
2018-08-10T02:44:30.567Z,0
2018-08-10T02:45:11.335Z,0
2018-08-10T02:45:52.144Z,0
2018-08-10T02:46:32.964Z,0
2018-08-10T02:47:13.821Z,0
2018-08-10T02:47:54.608Z,0
2018-08-10T02:48:35.350Z,0
2018-08-10T02:49:16.096Z,0
2018-08-10T02:49:56.815Z,0
2018-08-10T02:50:37.632Z,0
2018-08-10T02:51:18.581Z,0
2018-08-10T02:51:59.392Z,0
2018-08-10T02:52:40.147Z,0
2018-08-10T02:53:20.902Z,0
2018-08-10T02:54:01.684Z,0
2018-08-10T02:54:42.467Z,0
2018-08-10T02:55:23.256Z,0
2018-08-10T02:56:03.997Z,0
2018-08-10T02:56:44.805Z,0
2018-08-10T02:57:25.631Z,0
2018-08-10T02:58:06.462Z,0
2018-08-10T02:58:47.268Z,0
2018-08-10T02:59:28.007Z,0
2018-08-10T03:00:08.753Z,0
2018-08-10T03:00:49.479Z,0
2018-08-10T03:01:30.315Z,0
2018-08-10T03:02:11.101Z,0
2018-08-10T03:02:51.850Z,0
2018-08-10T03:03:32.643Z,0
2018-08-10T03:04:13.513Z,0
2018-08-10T03:04:54.311Z,0
2018-08-10T03:05:35.079Z,0
2018-08-10T03:06:15.799Z,0
2018-08-10T03:06:56.548Z,0
2018-08-10T03:07:37.414Z,0
2018-08-10T03:08:18.181Z,0
2018-08-10T03:08:59.037Z,0
2018-08-10T03:09:39.830Z,0
2018-08-10T03:10:20.562Z,0
2018-08-10T03:11:01.437Z,0
2018-08-10T03:11:42.251Z,0
2018-08-10T03:12:23.015Z,0
2018-08-10T03:13:03.735Z,0
2018-08-10T03:13:44.471Z,0
2018-08-10T03:14:25.304Z,0
2018-08-10T03:15:06.084Z,0
2018-08-10T03:15:46.816Z,0
2018-08-10T03:16:27.605Z,0
2018-08-10T03:17:08.394Z,0
2018-08-10T03:17:49.248Z,0
2018-08-10T03:18:30.053Z,0
2018-08-10T03:19:10.813Z,0
2018-08-10T03:19:51.616Z,0
2018-08-10T03:20:32.391Z,0
2018-08-10T03:21:13.135Z,0
2018-08-10T03:21:53.874Z,0
2018-08-10T03:22:34.593Z,0
2018-08-10T03:23:15.428Z,0
2018-08-10T03:23:56.325Z,0
2018-08-10T03:24:37.107Z,0
2018-08-10T03:25:17.897Z,0
2018-08-10T03:25:58.632Z,0
2018-08-10T03:26:39.366Z,0
2018-08-10T03:27:20.201Z,0
2018-08-10T03:28:01.036Z,0
2018-08-10T03:28:41.757Z,0
2018-08-10T03:29:22.580Z,0
2018-08-10T03:30:03.360Z,0
2018-08-10T03:30:44.199Z,0
2018-08-10T03:31:25.032Z,0
2018-08-10T03:32:05.779Z,0
2018-08-10T03:32:46.548Z,0
2018-08-10T03:33:27.292Z,0
2018-08-10T03:34:08.091Z,0
2018-08-10T03:34:52.569Z,0
2018-08-10T03:35:33.399Z,0
2018-08-10T03:36:14.139Z,0
2018-08-10T03:36:54.934Z,0
2018-08-10T03:37:35.753Z,0
2018-08-10T03:38:16.612Z,0
2018-08-10T03:38:57.314Z,0
2018-08-10T03:39:38.069Z,0
2018-08-10T03:40:20.563Z,0
2018-08-10T03:41:01.386Z,0
2018-08-10T03:41:42.251Z,0
2018-08-10T03:42:23.052Z,0
2018-08-10T03:43:03.785Z,0
2018-08-10T03:43:44.534Z,0
2018-08-10T03:44:25.295Z,0
2018-08-10T03:45:06.111Z,0
2018-08-10T03:45:46.953Z,0
2018-08-10T03:46:27.695Z,0
2018-08-10T03:47:08.527Z,0
2018-08-10T03:47:49.361Z,0
2018-08-10T03:48:30.130Z,0
2018-08-10T03:49:10.942Z,0
2018-08-10T03:49:51.682Z,0
2018-08-10T03:50:32.506Z,0
2018-08-10T03:51:13.313Z,0
2018-08-10T03:51:54.055Z,0
2018-08-10T03:52:34.869Z,0
2018-08-10T03:53:15.665Z,0
2018-08-10T03:53:56.477Z,0
2018-08-10T03:54:37.258Z,0
2018-08-10T03:55:18.015Z,0
2018-08-10T03:55:58.820Z,0
2018-08-10T03:56:39.652Z,0
2018-08-10T03:57:20.462Z,0
2018-08-10T03:58:01.202Z,0
2018-08-10T03:58:41.919Z,0
2018-08-10T03:59:22.709Z,0
2018-08-10T04:00:03.522Z,0
2018-08-10T04:00:44.396Z,0
2018-08-10T04:01:25.198Z,0
2018-08-10T04:02:06.049Z,0
2018-08-10T04:02:46.855Z,0
2018-08-10T04:03:27.671Z,0
2018-08-10T04:04:08.509Z,0
2018-08-10T04:04:49.262Z,0
2018-08-10T04:05:30.000Z,0
2018-08-10T04:06:10.767Z,0
2018-08-10T04:06:51.619Z,0
2018-08-10T04:07:32.526Z,0
2018-08-10T04:08:13.352Z,0
2018-08-10T04:08:54.162Z,0
2018-08-10T04:09:34.937Z,0
2018-08-10T04:10:15.708Z,0
2018-08-10T04:10:56.540Z,0
2018-08-10T04:11:37.438Z,0
2018-08-10T04:12:18.150Z,0
2018-08-10T04:12:58.908Z,0
2018-08-10T04:13:39.753Z,0
2018-08-10T04:14:20.596Z,0
2018-08-10T04:15:01.442Z,0
2018-08-10T04:15:42.179Z,0
2018-08-10T04:16:22.926Z,0
2018-08-10T04:17:03.664Z,0
2018-08-10T04:17:44.478Z,0
2018-08-10T04:18:25.339Z,0
2018-08-10T04:19:06.155Z,0
2018-08-10T04:19:46.933Z,0
2018-08-10T04:20:27.662Z,0
2018-08-10T04:21:08.505Z,0
2018-08-10T04:21:49.343Z,0
2018-08-10T04:22:30.098Z,0
2018-08-10T04:23:10.856Z,0
2018-08-10T04:23:51.648Z,0
2018-08-10T04:24:32.458Z,0
2018-08-10T04:25:13.217Z,0
2018-08-10T04:25:53.968Z,0
2018-08-10T04:26:34.743Z,0
2018-08-10T04:27:15.625Z,0
2018-08-10T04:27:56.445Z,0
2018-08-10T04:28:37.194Z,0
2018-08-10T04:29:17.976Z,0
2018-08-10T04:29:58.811Z,0
2018-08-10T04:30:39.624Z,0
2018-08-10T04:31:20.430Z,0
2018-08-10T04:32:01.142Z,0
2018-08-10T04:32:41.957Z,0
2018-08-10T04:33:22.861Z,0
2018-08-10T04:34:03.706Z,0
2018-08-10T04:34:44.548Z,0
2018-08-10T04:35:25.252Z,0
2018-08-10T04:36:05.991Z,0
2018-08-10T04:36:46.782Z,0
2018-08-10T04:37:27.611Z,0
2018-08-10T04:38:08.407Z,0
2018-08-10T04:38:49.192Z,0
2018-08-10T04:39:29.983Z,0
2018-08-10T04:40:10.855Z,0
2018-08-10T04:40:51.686Z,0
2018-08-10T04:41:32.452Z,0
2018-08-10T04:42:13.220Z,0
2018-08-10T04:42:54.053Z,0
2018-08-10T04:43:34.816Z,0
2018-08-10T04:44:15.564Z,0
2018-08-10T04:44:56.278Z,0
2018-08-10T04:45:37.057Z,0
2018-08-10T04:46:17.928Z,0
2018-08-10T04:46:58.673Z,0
2018-08-10T04:47:39.419Z,0
2018-08-10T04:48:20.350Z,0
2018-08-10T04:49:01.039Z,0
2018-08-10T04:49:41.905Z,0
2018-08-10T04:50:22.720Z,0
2018-08-10T04:51:03.442Z,0
2018-08-10T04:51:44.222Z,0
2018-08-10T04:52:25.023Z,4
2018-08-10T04:53:05.929Z,4
2018-08-10T04:53:46.791Z,4
2018-08-10T04:54:27.556Z,4
2018-08-10T04:55:08.384Z,4
2018-08-10T04:55:49.137Z,4
2018-08-10T04:56:29.930Z,4
2018-08-10T04:57:10.665Z,4
2018-08-10T04:57:51.395Z,8
2018-08-10T04:58:32.145Z,4
2018-08-10T04:59:12.955Z,4
2018-08-10T04:59:53.735Z,4
2018-08-10T05:00:34.499Z,4
2018-08-10T05:01:15.323Z,4
2018-08-10T05:01:56.132Z,8
2018-08-10T05:02:36.971Z,4
2018-08-10T05:03:17.713Z,4
2018-08-10T05:03:58.591Z,4
2018-08-10T05:04:39.495Z,8
2018-08-10T05:05:20.266Z,8
2018-08-10T05:06:01.027Z,8
2018-08-10T05:06:42.216Z,8
2018-08-10T05:07:23.253Z,8
2018-08-10T05:08:04.107Z,8
2018-08-10T05:08:44.926Z,12
2018-08-10T05:09:25.741Z,12
2018-08-10T05:10:06.517Z,8
2018-08-10T05:10:47.272Z,12
2018-08-10T05:11:27.988Z,12
2018-08-10T05:12:08.820Z,12
2018-08-10T05:12:49.637Z,12
2018-08-10T05:13:30.402Z,16
2018-08-10T05:14:11.237Z,16
2018-08-10T05:14:52.037Z,16
2018-08-10T05:15:32.902Z,16
2018-08-10T05:16:13.666Z,16
2018-08-10T05:16:54.418Z,20
2018-08-10T05:17:35.163Z,24
2018-08-10T05:18:15.928Z,20
2018-08-10T05:18:56.762Z,24
2018-08-10T05:19:37.569Z,28
2018-08-10T05:20:18.405Z,32
2018-08-10T05:20:59.128Z,32
2018-08-10T05:21:39.933Z,36
2018-08-10T05:22:20.721Z,40
2018-08-10T05:23:01.422Z,40
2018-08-10T05:23:42.183Z,44
2018-08-10T05:24:22.875Z,48
2018-08-10T05:25:03.652Z,48
2018-08-10T05:25:44.590Z,52
2018-08-10T05:26:25.455Z,56
2018-08-10T05:27:06.190Z,56
2018-08-10T05:27:46.906Z,60
2018-08-10T05:28:27.624Z,56
2018-08-10T05:29:08.437Z,68
2018-08-10T05:29:49.285Z,64
2018-08-10T05:30:30.025Z,64
2018-08-10T05:31:10.793Z,56
2018-08-10T05:31:51.672Z,52
2018-08-10T05:32:32.470Z,76
2018-08-10T05:33:13.504Z,88
2018-08-10T05:33:54.257Z,92
2018-08-10T05:34:34.994Z,108
2018-08-10T05:35:15.829Z,116
2018-08-10T05:35:56.546Z,116
2018-08-10T05:36:37.282Z,116
2018-08-10T05:37:18.034Z,116
2018-08-10T05:37:58.835Z,152
2018-08-10T05:38:39.726Z,192
2018-08-10T05:39:20.450Z,220
2018-08-10T05:40:01.210Z,236
2018-08-10T05:40:42.193Z,252
2018-08-10T05:41:22.951Z,272
2018-08-10T05:42:03.847Z,296
2018-08-10T05:42:44.582Z,316
2018-08-10T05:43:25.324Z,344
2018-08-10T05:44:06.203Z,364
2018-08-10T05:44:46.981Z,376
2018-08-10T05:45:27.809Z,364
2018-08-10T05:46:08.683Z,332
2018-08-10T05:46:50.174Z,320
2018-08-10T05:47:30.783Z,372
2018-08-10T05:48:11.596Z,400
2018-08-10T05:48:52.429Z,352
2018-08-10T05:49:33.162Z,380
2018-08-10T05:50:13.871Z,492
2018-08-10T05:50:54.663Z,476
2018-08-10T05:51:35.518Z,480
2018-08-10T05:52:16.351Z,480
2018-08-10T05:52:57.390Z,480
2018-08-10T05:53:38.249Z,488
2018-08-10T05:54:19.269Z,496
2018-08-10T05:55:00.058Z,508
2018-08-10T05:55:40.908Z,516
2018-08-10T05:56:21.808Z,524
2018-08-10T05:57:04.454Z,540
2018-08-10T05:57:45.310Z,568
2018-08-10T05:58:26.122Z,584
2018-08-10T05:59:06.967Z,592
2018-08-10T05:59:47.789Z,664
2018-08-10T06:00:30.036Z,684
2018-08-10T06:01:11.111Z,632
2018-08-10T06:01:51.988Z,636
2018-08-10T06:02:32.852Z,648
2018-08-10T06:03:13.808Z,656
2018-08-10T06:03:54.646Z,668
2018-08-10T06:04:35.216Z,676
2018-08-10T06:05:16.019Z,684
2018-08-10T06:05:56.830Z,696
2018-08-10T06:06:37.595Z,712
2018-08-10T06:07:18.292Z,724
2018-08-10T06:07:59.136Z,740
2018-08-10T06:08:39.980Z,752
2018-08-10T06:09:20.766Z,764
2018-08-10T06:10:04.117Z,784
2018-08-10T06:10:44.971Z,800
2018-08-10T06:11:25.777Z,816
2018-08-10T06:12:06.664Z,836
2018-08-10T06:12:47.463Z,852
2018-08-10T06:13:28.192Z,868
2018-08-10T06:14:09.040Z,880
2018-08-10T06:14:49.792Z,896
2018-08-10T06:15:30.586Z,912
2018-08-10T06:16:11.289Z,932
2018-08-10T06:16:52.057Z,956
2018-08-10T06:17:32.897Z,984
2018-08-10T06:18:13.803Z,1004
2018-08-10T06:18:54.597Z,1016
2018-08-10T06:19:35.504Z,1016
2018-08-10T06:20:16.123Z,984
2018-08-10T06:20:56.874Z,928
2018-08-10T06:21:37.722Z,860
2018-08-10T06:22:18.516Z,732
2018-08-10T06:22:59.312Z,864
2018-08-10T06:23:40.097Z,1092
2018-08-10T06:24:20.899Z,1104
2018-08-10T06:25:01.840Z,1272
2018-08-10T06:25:42.645Z,1204
2018-08-10T06:26:23.355Z,1480
2018-08-10T06:27:04.112Z,1276
2018-08-10T06:27:44.844Z,1412
2018-08-10T06:28:25.669Z,1388
2018-08-10T06:29:06.524Z,1144
2018-08-10T06:29:47.306Z,1128
2018-08-10T06:30:28.034Z,1260
2018-08-10T06:31:08.796Z,2008
2018-08-10T06:31:49.621Z,1856
2018-08-10T06:32:30.377Z,1680
2018-08-10T06:33:11.130Z,1808
2018-08-10T06:33:51.962Z,2724
2018-08-10T06:34:32.722Z,2920
2018-08-10T06:35:13.472Z,3128
2018-08-10T06:35:54.330Z,3192
2018-08-10T06:36:35.111Z,3116
2018-08-10T06:37:15.851Z,2992
2018-08-10T06:37:56.588Z,2984
2018-08-10T06:38:37.349Z,2940
2018-08-10T06:39:20.036Z,3000
2018-08-10T06:40:00.851Z,3028
2018-08-10T06:40:41.610Z,3076
2018-08-10T06:41:22.408Z,3128
2018-08-10T06:42:03.301Z,3240
2018-08-10T06:42:44.093Z,2568
2018-08-10T06:43:24.857Z,2640
2018-08-10T06:44:05.555Z,992
2018-08-10T06:44:46.443Z,1012
2018-08-10T06:45:27.170Z,1028
2018-08-10T06:46:07.918Z,1040
2018-08-10T06:46:48.695Z,1060
2018-08-10T06:47:29.470Z,1072
2018-08-10T06:48:10.273Z,1036
2018-08-10T06:48:51.073Z,1044
2018-08-10T06:49:31.852Z,1044
2018-08-10T06:50:12.716Z,1064
2018-08-10T06:50:53.564Z,1084
2018-08-10T06:51:34.354Z,1088
2018-08-10T06:52:15.114Z,1092
2018-08-10T06:52:55.870Z,1080
2018-08-10T06:53:36.596Z,1084
2018-08-10T06:54:17.472Z,1100
2018-08-10T06:54:58.307Z,1088
2018-08-10T06:55:39.157Z,1080
2018-08-10T06:56:19.928Z,1076
2018-08-10T06:57:00.732Z,1084
2018-08-10T06:57:41.530Z,1084
2018-08-10T06:58:22.317Z,1096
2018-08-10T06:59:03.032Z,1100
2018-08-10T06:59:43.781Z,1104
2018-08-10T07:00:24.581Z,1104
2018-08-10T07:01:05.469Z,1096
2018-08-10T07:01:46.206Z,1108
2018-08-10T07:02:26.960Z,1112
2018-08-10T07:03:07.800Z,1092
2018-08-10T07:03:48.571Z,1100
2018-08-10T07:04:29.390Z,1088
2018-08-10T07:05:10.178Z,1096
2018-08-10T07:05:50.891Z,1104
2018-08-10T07:06:31.737Z,1100
2018-08-10T07:07:12.469Z,1092
2018-08-10T07:07:53.310Z,1092
2018-08-10T07:08:33.982Z,1088
2018-08-10T07:09:14.754Z,1084
2018-08-10T07:09:55.617Z,1080
2018-08-10T07:10:36.419Z,1048
2018-08-10T07:11:17.275Z,1024
2018-08-10T07:11:58.119Z,1016
2018-08-10T07:12:38.852Z,1012
2018-08-10T07:13:19.703Z,992
2018-08-10T07:14:00.409Z,992
2018-08-10T07:14:41.179Z,1000
2018-08-10T07:15:21.950Z,988
2018-08-10T07:16:02.797Z,992
2018-08-10T07:16:43.631Z,976
2018-08-10T07:17:24.459Z,968
2018-08-10T07:18:05.343Z,960
2018-08-10T07:18:46.225Z,936
2018-08-10T07:19:27.092Z,916
2018-08-10T07:20:07.895Z,260
2018-08-10T07:20:48.662Z,268
2018-08-10T07:21:29.408Z,256
2018-08-10T07:22:10.149Z,312
2018-08-10T07:22:50.994Z,432
2018-08-10T07:23:31.783Z,484
2018-08-10T07:24:12.532Z,540
2018-08-10T07:24:53.384Z,436
2018-08-10T07:25:34.200Z,588
2018-08-10T07:26:15.019Z,940
2018-08-10T07:26:55.841Z,788
2018-08-10T07:27:36.615Z,380
2018-08-10T07:28:17.362Z,364
2018-08-10T07:28:58.223Z,368
2018-08-10T07:29:39.081Z,424
2018-08-10T07:30:19.967Z,760
2018-08-10T07:31:00.775Z,448
2018-08-10T07:31:41.531Z,848
2018-08-10T07:32:22.372Z,980
2018-08-10T07:33:03.222Z,988
2018-08-10T07:33:43.936Z,988
2018-08-10T07:34:24.652Z,976
2018-08-10T07:35:05.443Z,968
2018-08-10T07:35:46.312Z,956
2018-08-10T07:36:27.183Z,964
2018-08-10T07:37:08.069Z,964
2018-08-10T07:37:48.786Z,944
2018-08-10T07:38:29.589Z,940
2018-08-10T07:39:10.304Z,932
2018-08-10T07:39:51.056Z,944
2018-08-10T07:40:31.927Z,940
2018-08-10T07:41:12.660Z,732
2018-08-10T07:41:53.548Z,968
2018-08-10T07:42:34.367Z,976
2018-08-10T07:43:15.184Z,980
2018-08-10T07:43:58.879Z,968
2018-08-10T07:44:39.603Z,960
2018-08-10T07:45:20.358Z,972
2018-08-10T07:46:01.112Z,968
2018-08-10T07:46:41.950Z,972
2018-08-10T07:47:22.775Z,984
2018-08-10T07:48:03.568Z,964
2018-08-10T07:48:44.312Z,972
2018-08-10T07:49:25.064Z,980
2018-08-10T07:50:05.922Z,992
2018-08-10T07:50:46.733Z,1004
2018-08-10T07:51:27.488Z,1016
2018-08-10T07:52:08.230Z,1024
2018-08-10T07:52:48.936Z,1024
2018-08-10T07:53:29.776Z,1000
2018-08-10T07:54:10.594Z,1004
2018-08-10T07:54:51.417Z,1008
2018-08-10T07:55:32.315Z,988
2018-08-10T07:56:13.168Z,536
2018-08-10T07:56:54.065Z,440
2018-08-10T07:57:34.844Z,984
2018-08-10T07:58:15.685Z,1048
2018-08-10T07:58:56.582Z,1052
2018-08-10T07:59:37.517Z,1016
2018-08-10T08:00:18.297Z,1000
2018-08-10T08:00:59.038Z,1012
2018-08-10T08:01:39.853Z,1012
2018-08-10T08:02:20.709Z,996
2018-08-10T08:03:01.617Z,1012
2018-08-10T08:03:43.981Z,1004
2018-08-10T08:04:24.720Z,988
2018-08-10T08:05:05.475Z,1000
2018-08-10T08:05:46.219Z,988
2018-08-10T08:06:27.138Z,908
2018-08-10T08:07:09.797Z,892
2018-08-10T08:07:50.592Z,480
2018-08-10T08:08:32.964Z,508
2018-08-10T08:09:16.288Z,600
2018-08-10T08:09:57.138Z,968
2018-08-10T08:10:38.016Z,1020
2018-08-10T08:11:18.718Z,1024
2018-08-10T08:11:59.463Z,1040
2018-08-10T08:12:40.243Z,1028
2018-08-10T08:13:21.116Z,1060
2018-08-10T08:14:01.973Z,1040
2018-08-10T08:14:42.753Z,1048
2018-08-10T08:15:23.547Z,1044
2018-08-10T08:16:04.884Z,1076
2018-08-10T08:16:45.830Z,1100
2018-08-10T08:17:26.515Z,1128
2018-08-10T08:18:07.384Z,1240
2018-08-10T08:18:48.087Z,1288
2018-08-10T08:19:29.047Z,1452
2018-08-10T08:20:09.859Z,380
2018-08-10T08:20:50.687Z,352
2018-08-10T08:21:31.535Z,296
2018-08-10T08:22:12.354Z,300
2018-08-10T08:22:53.091Z,540
2018-08-10T08:23:33.883Z,240
2018-08-10T08:24:14.729Z,220
2018-08-10T08:24:55.571Z,208
2018-08-10T08:25:36.448Z,200
2018-08-10T08:26:17.375Z,216
2018-08-10T08:26:58.225Z,200
2018-08-10T08:27:39.131Z,184
2018-08-10T08:28:19.902Z,188
2018-08-10T08:29:00.783Z,200
2018-08-10T08:29:41.802Z,232
2018-08-10T08:30:22.526Z,268
2018-08-10T08:31:03.337Z,292
2018-08-10T08:31:44.117Z,316
2018-08-10T08:32:25.018Z,316
2018-08-10T08:33:05.837Z,304
2018-08-10T08:33:46.609Z,304
2018-08-10T08:34:27.370Z,312
2018-08-10T08:35:08.335Z,344
2018-08-10T08:35:49.067Z,336
2018-08-10T08:36:31.610Z,428
2018-08-10T08:37:12.391Z,424
2018-08-10T08:37:53.109Z,404
2018-08-10T08:38:33.868Z,412
2018-08-10T08:39:14.693Z,492
2018-08-10T08:39:55.631Z,688
2018-08-10T08:40:36.439Z,3720
2018-08-10T08:41:17.229Z,1924
2018-08-10T08:41:58.027Z,1756
2018-08-10T08:42:38.854Z,2172
2018-08-10T08:43:19.643Z,1084
2018-08-10T08:44:00.462Z,752
2018-08-10T08:44:41.322Z,612
2018-08-10T08:45:22.217Z,444
2018-08-10T08:46:03.262Z,424
2018-08-10T08:46:43.889Z,500
2018-08-10T08:47:24.750Z,588
2018-08-10T08:48:05.458Z,356
2018-08-10T08:48:46.191Z,280
2018-08-10T08:49:30.777Z,256
2018-08-10T08:50:11.671Z,236
2018-08-10T08:50:52.492Z,228
2018-08-10T08:51:33.283Z,212
2018-08-10T08:52:14.118Z,208
2018-08-10T08:52:59.961Z,200
2018-08-10T08:53:40.622Z,180
2018-08-10T08:54:21.383Z,168
2018-08-10T08:55:02.097Z,156
2018-08-10T08:55:42.934Z,156
2018-08-10T08:56:23.748Z,148
2018-08-10T08:57:04.576Z,144
2018-08-10T08:57:45.405Z,144
2018-08-10T08:58:26.228Z,136
2018-08-10T08:59:06.983Z,128
2018-08-10T08:59:47.762Z,124
2018-08-10T09:00:28.620Z,124
2018-08-10T09:01:09.422Z,120
2018-08-10T09:01:50.137Z,116
2018-08-10T09:02:30.881Z,116
2018-08-10T09:03:11.696Z,120
2018-08-10T09:03:52.533Z,116
2018-08-10T09:04:33.272Z,124
2018-08-10T09:05:14.190Z,124
2018-08-10T09:05:55.076Z,128
2018-08-10T09:06:35.908Z,132
2018-08-10T09:07:16.851Z,136
2018-08-10T09:07:57.522Z,136
2018-08-10T09:08:38.332Z,140
2018-08-10T09:09:19.124Z,152
2018-08-10T09:09:59.900Z,160
2018-08-10T09:10:40.644Z,164
2018-08-10T09:11:21.384Z,172
2018-08-10T09:12:02.207Z,180
2018-08-10T09:12:43.106Z,184
2018-08-10T09:13:23.979Z,192
2018-08-10T09:14:04.755Z,208
2018-08-10T09:14:45.502Z,220
2018-08-10T09:15:26.320Z,236
2018-08-10T09:16:07.101Z,252
2018-08-10T09:16:47.930Z,260
2018-08-10T09:17:30.707Z,272
2018-08-10T09:18:11.404Z,300
2018-08-10T09:18:52.237Z,312
2018-08-10T09:19:33.054Z,316
2018-08-10T09:20:13.874Z,328
2018-08-10T09:20:54.562Z,324
2018-08-10T09:21:35.342Z,316
2018-08-10T09:22:16.180Z,316
2018-08-10T09:22:56.945Z,308
2018-08-10T09:23:37.709Z,284
2018-08-10T09:24:18.491Z,268
2018-08-10T09:24:59.330Z,272
2018-08-10T09:25:40.195Z,268
2018-08-10T09:26:21.010Z,268
2018-08-10T09:27:01.872Z,272
2018-08-10T09:27:42.663Z,260
2018-08-10T09:28:23.485Z,252
2018-08-10T09:29:04.298Z,244
2018-08-10T09:29:45.102Z,236
2018-08-10T09:30:25.847Z,236
2018-08-10T09:31:06.608Z,232
2018-08-10T09:31:47.389Z,224
2018-08-10T09:32:28.203Z,216
2018-08-10T09:33:09.061Z,200
2018-08-10T09:33:49.818Z,184
2018-08-10T09:34:30.706Z,176
2018-08-10T09:35:11.487Z,164
2018-08-10T09:35:52.313Z,156
2018-08-10T09:36:33.060Z,148
2018-08-10T09:37:13.780Z,136
2018-08-10T09:37:54.563Z,132
2018-08-10T09:38:35.451Z,132
2018-08-10T09:39:16.171Z,132
2018-08-10T09:39:57.070Z,128
2018-08-10T09:40:37.839Z,128
2018-08-10T09:41:18.714Z,124
2018-08-10T09:41:59.622Z,128